Skelton, AK

8:25 AM AKDT on July 23, 2014 (GMT -0800)
AKDOT Glenn Highway @ Gunsight Mountain MP 11 (MGMTA2) Elev 3234 ft | 61.83 °N, 147.41 °W | Change Station

Current weather conditions updated 25 minutes ago

Overcast
Overcast
45 °F
Feels Like 45 °F
N
3
Wind Variable Wind from SSW
Gusts 6.0 mph

Today is forecast to be Much Cooler than yesterday. Showers possible.

Today
High -- | Low -- °F
--% Chance of Precip.
Yesterday
High -- | Low -- °F
Precip. -- in
4:52 AM 10:56 PM
Waning Crescent, 10% visible
Pressure 29.85 in
Visibility 10.0 miles
Clouds Overcast 8000 ft
Windchill 45 °F
Dew Point 43 °F
Humidity 93%
Rainfall 0.00 in
Snow Depth Not available.
UV 0 out of 12
Pollen Not available.
Air Quality Not available.
Flu Activity Not available.
METAR PAGK 231553Z AUTO 17010KT 10SM OVC080 12/04 A2986 RMK AO2 SLP107 T01170039 TSNO $

More Conditions Fewer Conditions

Pressure 29.85 in
Visibility 10.0 miles
Clouds Overcast 8000 ft
Windchill 45 °F
Dew Point 43 °F
Humidity 93%
Rainfall 0.00 in
Snow Depth Not available.
UV 0 out of 12
Pollen Not available.
Air Quality Not available.
Flu Activity Not available.
METAR PAGK 231553Z AUTO 17010KT 10SM OVC080 12/04 A2986 RMK AO2 SLP107 T01170039 TSNO $

More Conditions Fewer Conditions

10-Day Weather Forecast

Almanac

Astronomy

Jul. 23, 2014 Rise Set
Actual Time 4:52 AM AKDT 10:56 PM AKDT
Civil Twilight 3:27 AM AKDT 12:19 AM AKDT
Nautical Twilight Sun does not rise Sun does not rise
Astronomical Twilight Sun does not rise Sun does not rise
Moon 2:29 AM AKDT 8:22 PM AKDT
Length of Visible Light 20h 51m
Length of Day
18h 04m
Tomorrow will be 5m 6s shorter.
Waning Crescent, 10% of the Moon is Illuminated
Today
Waning Crescent
Jul 26
New
Aug 3
First Quarter
Aug 10
Full
Aug 17
Last Quarter

Today's Extremes

State Highs State Lows

Community

WunderPhotos

Upload Photos

1,736,664 photos uploaded!

Nearby

Snow Depth

Station Depth Elevation
Moraine 0 in 2100 ft
Upper Tsaina River 0 in 1750 ft
Susitna Valley High 2 in 375 ft
Indian Pass 1 in 2300 ft
Point Mackenzie 1 in 200 ft

Earthquake Activity

City Distance Mag. Time & Date
No recent earthquake activity has been reported nearby.
Minimum magnitude displayed is 2.5.

Coastal Water Temperatures

Place Temperature
No Stations Reporting

Nearby Weather Stations

Station Location Temp. Windchill Dew Point Humidity Wind Precip. Elev Updated Type
AKDOT Glenn Highway @ Gunsight Mountain , Tatitlek, AK 45 °F 45 °F 43 °F 93% SSW  at  3 mph 0.00 in / hr 3234 ft 8:00 AM AKDT MADIS

Show More Stations Show Fewer Stations